createdAt,value
2022-10-12T00:00:38.954Z,14.91
2022-10-12T00:03:08.516Z,14.81
2022-10-12T00:05:38.292Z,14.84
2022-10-12T00:08:08.101Z,14.80
2022-10-12T00:10:42.388Z,14.77
2022-10-12T00:13:12.459Z,14.70
2022-10-12T00:15:42.447Z,14.68
2022-10-12T00:18:12.344Z,14.68
2022-10-12T00:20:41.920Z,14.71
2022-10-12T00:23:12.082Z,14.70
2022-10-12T00:25:43.083Z,14.60
2022-10-12T00:28:12.644Z,14.59
2022-10-12T00:30:42.585Z,14.54
2022-10-12T00:33:12.176Z,14.55
2022-10-12T00:35:41.976Z,14.50
2022-10-12T00:38:11.907Z,14.57
2022-10-12T00:40:42.961Z,14.66
2022-10-12T00:43:26.004Z,14.66
2022-10-12T00:45:55.661Z,14.57
2022-10-12T00:48:25.767Z,14.45
2022-10-12T00:50:55.999Z,14.57
2022-10-12T00:53:27.548Z,14.63
2022-10-12T00:56:00.619Z,14.68
2022-10-12T00:58:31.588Z,14.61
2022-10-12T01:01:02.396Z,14.64
2022-10-12T01:03:32.664Z,14.53
2022-10-12T01:06:02.472Z,14.53
2022-10-12T01:08:32.106Z,14.60
2022-10-12T01:11:03.164Z,14.58
2022-10-12T01:13:33.503Z,14.61
2022-10-12T01:16:06.586Z,14.62
2022-10-12T01:18:41.431Z,14.68
2022-10-12T01:21:15.181Z,14.69
2022-10-12T01:24:02.666Z,14.60
2022-10-12T01:26:59.416Z,14.51
2022-10-12T01:29:40.460Z,14.60
2022-10-12T01:32:15.010Z,14.52
2022-10-12T01:34:46.271Z,14.51
2022-10-12T01:37:19.911Z,14.42
2022-10-12T01:39:53.351Z,14.47
2022-10-12T01:42:26.735Z,14.56
2022-10-12T01:45:02.509Z,14.48
2022-10-12T01:47:34.131Z,14.52
2022-10-12T01:50:04.550Z,14.54
2022-10-12T01:52:36.428Z,14.41
2022-10-12T01:55:18.098Z,14.43
2022-10-12T01:58:11.655Z,14.43
2022-10-12T02:00:43.894Z,14.39
2022-10-12T02:03:21.467Z,14.27
2022-10-12T02:05:53.173Z,14.24
2022-10-12T02:08:25.628Z,14.27
2022-10-12T02:10:56.900Z,14.33
2022-10-12T02:13:29.458Z,14.31
2022-10-12T02:16:00.535Z,14.28
2022-10-12T02:18:31.753Z,14.21
2022-10-12T02:21:01.797Z,14.05
2022-10-12T02:23:31.349Z,14.13
2022-10-12T02:26:02.883Z,14.09
2022-10-12T02:28:35.666Z,14.11
2022-10-12T02:31:09.804Z,14.19
2022-10-12T02:33:44.047Z,14.25
2022-10-12T02:36:16.941Z,14.20
2022-10-12T02:38:49.598Z,14.18
2022-10-12T02:41:22.434Z,14.17
2022-10-12T02:43:55.155Z,14.11
2022-10-12T02:46:29.853Z,13.98
2022-10-12T02:49:01.207Z,13.95
2022-10-12T02:51:31.152Z,13.99
2022-10-12T02:54:01.634Z,14.03
2022-10-12T02:56:31.252Z,13.98
2022-10-12T02:59:01.138Z,13.96
2022-10-12T03:01:31.052Z,13.95
2022-10-12T03:04:02.703Z,13.89
2022-10-12T03:06:32.435Z,13.88
2022-10-12T03:09:02.096Z,13.90
2022-10-12T03:11:31.817Z,13.89
2022-10-12T03:14:02.262Z,13.89
2022-10-12T03:16:32.281Z,13.86
2022-10-12T03:19:03.263Z,13.89
2022-10-12T03:21:32.882Z,13.83
2022-10-12T03:24:02.551Z,13.63
2022-10-12T03:26:32.082Z,13.78
2022-10-12T03:29:01.735Z,13.85
2022-10-12T03:31:31.441Z,13.85
2022-10-12T03:34:01.104Z,13.73
2022-10-12T03:36:32.273Z,13.69
2022-10-12T03:39:02.102Z,13.68
2022-10-12T03:41:31.660Z,13.78
2022-10-12T03:44:01.397Z,13.72
2022-10-12T03:46:31.023Z,13.76
2022-10-12T03:49:00.886Z,13.76
2022-10-12T03:51:30.539Z,13.78
2022-10-12T03:54:01.486Z,13.77
2022-10-12T03:56:31.022Z,13.72
2022-10-12T03:59:00.569Z,13.78
2022-10-12T04:01:30.468Z,13.75
2022-10-12T04:04:00.132Z,13.62
2022-10-12T04:06:29.967Z,13.61
2022-10-12T04:09:01.807Z,13.69
2022-10-12T04:11:31.662Z,13.75
2022-10-12T04:14:01.875Z,13.76
2022-10-12T04:16:31.741Z,13.72
2022-10-12T04:19:01.379Z,13.67
2022-10-12T04:21:32.126Z,13.70
2022-10-12T04:24:03.153Z,13.68
2022-10-12T04:26:32.938Z,13.73
2022-10-12T04:29:02.689Z,13.72
2022-10-12T04:31:32.443Z,13.76
2022-10-12T04:34:02.180Z,13.58
2022-10-12T04:36:31.804Z,13.72
2022-10-12T04:39:01.526Z,13.80
2022-10-12T04:41:33.029Z,13.78
2022-10-12T04:44:02.697Z,13.75
2022-10-12T04:46:32.337Z,13.78
2022-10-12T04:49:01.971Z,13.76
2022-10-12T04:51:31.930Z,13.78
2022-10-12T04:54:02.079Z,13.78
2022-10-12T04:56:33.249Z,13.81
2022-10-12T04:59:02.981Z,13.84
2022-10-12T05:01:32.858Z,13.93
2022-10-12T05:04:02.737Z,13.85
2022-10-12T05:06:32.589Z,13.95
2022-10-12T05:09:02.126Z,13.95
2022-10-12T05:11:33.259Z,14.10
2022-10-12T05:14:03.660Z,14.12
2022-10-12T05:16:33.840Z,14.11
2022-10-12T05:19:03.455Z,14.04
2022-10-12T05:21:33.139Z,14.15
2022-10-12T05:24:02.749Z,14.22
2022-10-12T05:26:33.867Z,14.22
2022-10-12T05:29:03.825Z,14.26
2022-10-12T05:31:33.403Z,14.19
2022-10-12T05:34:03.132Z,14.26
2022-10-12T05:36:36.610Z,14.28
2022-10-12T05:39:09.882Z,14.04
2022-10-12T05:42:05.379Z,14.23
2022-10-12T05:44:49.582Z,14.30
2022-10-12T05:47:25.151Z,14.27
2022-10-12T05:50:02.427Z,14.27
2022-10-12T05:52:38.258Z,14.25
2022-10-12T05:55:13.538Z,14.27
2022-10-12T05:58:07.598Z,14.31
2022-10-12T06:00:43.919Z,14.34
2022-10-12T06:03:19.856Z,14.40
2022-10-12T06:05:54.558Z,14.40
2022-10-12T06:08:34.758Z,14.43
2022-10-12T06:11:19.005Z,14.53
2022-10-12T06:14:05.234Z,14.46
2022-10-12T06:16:39.604Z,14.57
2022-10-12T06:19:18.988Z,14.58
2022-10-12T06:21:51.477Z,14.57
2022-10-12T06:24:25.142Z,14.63
2022-10-12T06:27:02.772Z,14.61
2022-10-12T06:29:39.665Z,14.65
2022-10-12T06:32:11.889Z,14.68
2022-10-12T06:34:52.951Z,14.71
2022-10-12T06:37:48.674Z,14.75
2022-10-12T06:40:16.130Z,14.75
2022-10-12T06:42:46.386Z,14.87
2022-10-12T06:45:18.907Z,14.94
2022-10-12T06:47:49.017Z,14.91
2022-10-12T06:50:18.729Z,14.83
2022-10-12T06:52:48.387Z,14.94
2022-10-12T06:55:18.058Z,15.03
2022-10-12T06:57:47.963Z,15.05
2022-10-12T07:00:19.320Z,15.20
2022-10-12T07:02:50.128Z,15.25
2022-10-12T07:05:21.042Z,15.39
2022-10-12T07:07:50.936Z,15.40
2022-10-12T07:10:20.894Z,15.42
2022-10-12T07:12:51.557Z,15.53
2022-10-12T07:15:23.244Z,15.50
2022-10-12T07:17:52.914Z,15.64
2022-10-12T07:20:22.638Z,15.68
2022-10-12T07:22:53.512Z,15.73
2022-10-12T07:25:23.310Z,15.84
2022-10-12T07:27:52.870Z,15.94
2022-10-12T07:30:39.908Z,15.96
2022-10-12T07:33:09.636Z,16.04
2022-10-12T07:35:56.919Z,16.05
2022-10-12T07:38:29.552Z,16.10
2022-10-12T07:41:00.290Z,16.18
2022-10-12T07:43:31.782Z,16.12
2022-10-12T07:46:04.437Z,16.16
2022-10-12T07:48:34.198Z,16.18
2022-10-12T07:51:04.697Z,16.16
2022-10-12T07:53:34.875Z,16.18
2022-10-12T07:56:05.411Z,16.19
2022-10-12T07:58:35.471Z,16.25
2022-10-12T08:01:07.017Z,16.30
2022-10-12T08:03:37.008Z,16.20
2022-10-12T08:06:10.720Z,16.28
2022-10-12T08:08:40.374Z,16.27
2022-10-12T08:11:10.826Z,16.31
2022-10-12T08:13:41.711Z,16.24
2022-10-12T08:16:14.410Z,16.29
2022-10-12T08:18:44.589Z,16.35
2022-10-12T08:21:15.081Z,16.28
2022-10-12T08:23:45.230Z,16.38
2022-10-12T08:26:15.811Z,16.34
2022-10-12T08:28:45.914Z,16.44
2022-10-12T08:31:17.741Z,16.51
2022-10-12T08:33:47.481Z,16.60
2022-10-12T08:36:17.496Z,16.61
2022-10-12T08:38:53.906Z,16.60
2022-10-12T08:41:47.327Z,16.54
2022-10-12T08:44:37.828Z,16.59
2022-10-12T08:47:12.508Z,16.60
2022-10-12T08:49:47.437Z,16.60
2022-10-12T08:52:24.823Z,16.66
2022-10-12T08:54:54.706Z,16.77
2022-10-12T08:57:24.337Z,16.68
2022-10-12T08:59:54.124Z,16.69
2022-10-12T09:02:36.273Z,16.71
2022-10-12T09:05:09.119Z,16.86
2022-10-12T09:07:41.256Z,16.92
2022-10-12T09:10:19.685Z,16.98
2022-10-12T09:12:56.031Z,16.91
2022-10-12T09:15:29.436Z,16.94
2022-10-12T09:18:01.621Z,16.95
2022-10-12T09:20:32.831Z,16.99
2022-10-12T09:23:04.491Z,17.11
2022-10-12T09:25:34.726Z,17.19
2022-10-12T09:28:14.472Z,17.26
2022-10-12T09:30:48.191Z,17.34
2022-10-12T09:33:23.033Z,17.37
2022-10-12T09:35:54.069Z,17.44
2022-10-12T09:38:24.532Z,17.30
2022-10-12T09:40:54.252Z,17.31
2022-10-12T09:43:24.219Z,17.35
2022-10-12T09:45:54.262Z,17.30
2022-10-12T09:48:26.371Z,17.27
2022-10-12T09:50:57.108Z,17.36
2022-10-12T09:53:28.765Z,17.43
2022-10-12T09:55:59.800Z,17.48
2022-10-12T09:58:30.112Z,17.48
2022-10-12T10:01:16.398Z,17.52
2022-10-12T10:03:48.574Z,17.56
2022-10-12T10:06:23.720Z,17.63
2022-10-12T10:08:53.397Z,17.68
2022-10-12T10:11:24.384Z,17.73
2022-10-12T10:13:55.099Z,17.70
2022-10-12T10:16:26.895Z,17.66
2022-10-12T10:18:58.758Z,17.80
2022-10-12T10:21:30.320Z,17.82
2022-10-12T10:24:01.136Z,17.86
2022-10-12T10:26:32.320Z,17.90
2022-10-12T10:29:16.716Z,17.98
2022-10-12T10:31:48.285Z,18.07
2022-10-12T10:34:24.218Z,18.11
2022-10-12T10:36:55.977Z,18.12
2022-10-12T10:39:27.019Z,18.27
2022-10-12T10:41:56.739Z,18.37
2022-10-12T10:44:28.047Z,18.49
2022-10-12T10:46:59.031Z,18.45
2022-10-12T10:49:37.785Z,18.33
2022-10-12T10:52:08.771Z,18.40
2022-10-12T10:54:39.240Z,18.40
2022-10-12T10:57:13.086Z,18.42
2022-10-12T10:59:48.736Z,18.45
2022-10-12T11:02:24.696Z,18.34
2022-10-12T11:04:59.391Z,18.41
2022-10-12T11:07:32.129Z,18.53
2022-10-12T11:10:04.167Z,18.39
2022-10-12T11:12:37.096Z,18.54
2022-10-12T11:15:09.500Z,18.72
2022-10-12T11:17:41.305Z,18.75
2022-10-12T11:20:26.496Z,18.64
2022-10-12T11:22:58.897Z,18.55
2022-10-12T11:25:32.144Z,18.51
2022-10-12T11:28:02.238Z,18.64
2022-10-12T11:30:37.186Z,18.72
2022-10-12T11:33:09.593Z,18.82
2022-10-12T11:35:42.647Z,18.87
2022-10-12T11:38:17.343Z,18.88
2022-10-12T11:43:41.868Z,18.91
2022-10-12T11:46:13.538Z,18.94
2022-10-12T11:48:47.693Z,19.00
2022-10-12T11:51:18.634Z,19.10
2022-10-12T11:53:52.340Z,19.16
2022-10-12T11:56:24.079Z,19.13
2022-10-12T11:59:01.178Z,19.08
2022-10-12T12:01:40.969Z,19.09
2022-10-12T12:04:42.598Z,19.13
2022-10-12T12:07:31.830Z,19.06
2022-10-12T12:10:02.840Z,19.00
2022-10-12T12:12:33.364Z,18.99
2022-10-12T12:15:07.732Z,19.03
2022-10-12T12:17:38.881Z,19.03
2022-10-12T12:20:23.240Z,18.99
2022-10-12T12:22:55.089Z,19.03
2022-10-12T12:25:29.409Z,19.02
2022-10-12T12:28:00.647Z,18.92
2022-10-12T12:30:35.974Z,18.93
2022-10-12T12:33:07.914Z,18.80
2022-10-12T12:35:39.703Z,18.72
2022-10-12T12:38:21.075Z,18.67
2022-10-12T12:41:09.170Z,18.67
2022-10-12T12:44:02.445Z,18.67
2022-10-12T12:46:50.587Z,18.67
2022-10-12T12:49:28.295Z,18.61
2022-10-12T12:51:59.858Z,18.62
2022-10-12T12:54:29.948Z,18.77
2022-10-12T12:57:14.381Z,18.76
2022-10-12T13:00:04.488Z,18.68
2022-10-12T13:02:53.307Z,18.64
2022-10-12T13:05:41.069Z,18.67
2022-10-12T13:08:25.080Z,18.66
2022-10-12T13:11:06.571Z,18.67
2022-10-12T13:13:49.651Z,18.67
2022-10-12T13:17:30.682Z,18.67
2022-10-12T13:19:36.956Z,18.71
2022-10-12T13:22:12.203Z,18.69
2022-10-12T13:24:45.703Z,18.72
2022-10-12T13:27:19.383Z,18.77
2022-10-12T13:29:54.294Z,18.75
2022-10-12T13:32:30.499Z,18.69
2022-10-12T13:35:06.206Z,18.64
2022-10-12T13:37:36.271Z,18.62
2022-10-12T13:40:06.408Z,18.59
2022-10-12T13:42:36.650Z,18.59
2022-10-12T13:45:08.978Z,18.56
2022-10-12T13:47:43.166Z,18.59
2022-10-12T13:50:19.777Z,18.54
2022-10-12T13:52:54.533Z,18.49
2022-10-12T13:55:26.793Z,18.52
2022-10-12T13:57:56.386Z,18.50
2022-10-12T14:00:27.497Z,18.54
2022-10-12T14:02:58.739Z,18.53
2022-10-12T14:05:30.665Z,18.55
2022-10-12T14:08:03.151Z,18.48
2022-10-12T14:10:34.153Z,18.47
2022-10-12T14:13:05.607Z,18.44
2022-10-12T14:15:36.889Z,18.42
2022-10-12T14:18:26.664Z,18.43
2022-10-12T14:21:06.737Z,18.49
2022-10-12T14:23:36.418Z,18.54
2022-10-12T14:26:06.359Z,18.60
2022-10-12T14:28:36.099Z,18.58
2022-10-12T14:31:05.714Z,18.59
2022-10-12T14:33:35.260Z,18.62
2022-10-12T14:36:16.717Z,18.61
2022-10-12T14:38:47.744Z,18.52
2022-10-12T14:41:44.723Z,18.55
2022-10-12T14:44:16.064Z,18.54
2022-10-12T14:46:51.442Z,18.47
2022-10-12T14:49:22.896Z,18.48
2022-10-12T14:51:55.396Z,18.43
2022-10-12T14:54:25.069Z,18.41
2022-10-12T14:56:55.124Z,18.37
2022-10-12T14:59:24.709Z,18.38
2022-10-12T15:01:54.731Z,18.36
2022-10-12T15:04:24.643Z,18.33
2022-10-12T15:06:55.854Z,18.40
2022-10-12T15:09:25.475Z,18.33
2022-10-12T15:11:55.614Z,18.37
2022-10-12T15:14:25.679Z,18.30
2022-10-12T15:16:57.892Z,18.24
2022-10-12T15:19:27.565Z,18.22
2022-10-12T15:21:58.611Z,18.27
2022-10-12T15:24:28.217Z,18.29
2022-10-12T15:26:58.075Z,18.25
2022-10-12T15:29:28.248Z,18.23
2022-10-12T15:31:59.517Z,18.17
2022-10-12T15:34:30.056Z,18.15
2022-10-12T15:37:04.159Z,18.09
2022-10-12T15:39:39.601Z,18.09
2022-10-12T15:42:09.308Z,18.08
2022-10-12T15:44:40.507Z,18.06
2022-10-12T15:47:11.415Z,18.06
2022-10-12T15:49:41.628Z,18.00
2022-10-12T15:52:12.983Z,17.98
2022-10-12T15:54:46.838Z,17.96
2022-10-12T15:57:18.425Z,17.93
2022-10-12T15:59:48.885Z,17.91
2022-10-12T16:02:21.017Z,17.89
2022-10-12T16:04:50.588Z,17.86
2022-10-12T16:07:21.934Z,17.84
2022-10-12T16:09:51.701Z,17.81
2022-10-12T16:12:21.519Z,17.76
2022-10-12T16:14:51.572Z,17.72
2022-10-12T16:17:21.548Z,17.71
2022-10-12T16:19:51.168Z,17.67
2022-10-12T16:22:22.219Z,17.61
2022-10-12T16:24:52.174Z,17.57
2022-10-12T16:27:21.834Z,17.53
2022-10-12T16:29:51.733Z,17.52
2022-10-12T16:32:21.623Z,17.51
2022-10-12T16:34:51.660Z,17.44
2022-10-12T16:37:22.790Z,17.42
2022-10-12T16:39:53.865Z,17.43
2022-10-12T16:42:23.859Z,17.36
2022-10-12T16:44:53.594Z,17.32
2022-10-12T16:47:23.939Z,17.27
2022-10-12T16:49:53.950Z,17.25
2022-10-12T16:52:25.589Z,17.18
2022-10-12T16:54:55.974Z,17.15
2022-10-12T16:57:25.730Z,17.13
2022-10-12T16:59:55.328Z,17.05
2022-10-12T17:02:24.971Z,17.04
2022-10-12T17:04:54.682Z,17.01
2022-10-12T17:07:25.711Z,16.95
2022-10-12T17:09:56.367Z,16.92
2022-10-12T17:12:27.578Z,16.84
2022-10-12T17:14:57.912Z,16.87
2022-10-12T17:17:27.915Z,16.90
2022-10-12T17:19:57.734Z,16.91
2022-10-12T17:22:28.993Z,16.93
2022-10-12T17:24:58.689Z,16.90
2022-10-12T17:27:32.078Z,16.88
2022-10-12T17:30:02.048Z,16.88
2022-10-12T17:32:31.928Z,16.82
2022-10-12T17:35:01.448Z,16.82
2022-10-12T17:37:32.476Z,16.81
2022-10-12T17:40:02.217Z,16.79
2022-10-12T17:42:31.777Z,16.76
2022-10-12T17:45:01.466Z,16.73
2022-10-12T17:47:31.269Z,16.65
2022-10-12T17:50:01.065Z,16.64
2022-10-12T17:52:37.866Z,16.61
2022-10-12T17:55:15.203Z,16.64
2022-10-12T17:57:53.899Z,16.61
2022-10-12T18:00:23.583Z,16.54
2022-10-12T18:02:53.316Z,16.52
2022-10-12T18:05:22.914Z,16.52
2022-10-12T18:07:53.903Z,16.51
2022-10-12T18:10:26.122Z,16.51
2022-10-12T18:12:58.087Z,16.47
2022-10-12T18:15:28.020Z,16.39
2022-10-12T18:17:57.664Z,16.39
2022-10-12T18:20:29.340Z,16.35
2022-10-12T18:23:00.451Z,16.33
2022-10-12T18:25:31.068Z,16.30
2022-10-12T18:28:00.704Z,16.27
2022-10-12T18:30:31.655Z,16.26
2022-10-12T18:33:02.010Z,16.25
2022-10-12T18:35:35.314Z,16.20
2022-10-12T18:38:06.253Z,16.15
2022-10-12T18:40:41.155Z,16.09
2022-10-12T18:43:11.831Z,16.04
2022-10-12T18:45:45.078Z,16.02
2022-10-12T18:48:15.176Z,15.95
2022-10-12T18:50:44.808Z,15.99
2022-10-12T18:53:15.925Z,15.99
2022-10-12T18:55:45.436Z,15.93
2022-10-12T18:58:15.125Z,15.83
2022-10-12T19:00:44.929Z,15.78
2022-10-12T19:03:14.611Z,15.74
2022-10-12T19:05:44.324Z,15.64
2022-10-12T19:08:15.255Z,15.71
2022-10-12T19:10:45.083Z,15.68
2022-10-12T19:13:15.428Z,15.66
2022-10-12T19:15:45.530Z,15.61
2022-10-12T19:18:15.214Z,15.61
2022-10-12T19:20:44.779Z,15.59
2022-10-12T19:23:17.905Z,15.65
2022-10-12T19:25:48.191Z,15.63
2022-10-12T19:28:17.851Z,15.61
2022-10-12T19:30:47.667Z,15.55
2022-10-12T19:33:17.251Z,15.42
2022-10-12T19:35:46.864Z,15.35
2022-10-12T19:38:17.908Z,15.42
2022-10-12T19:40:47.757Z,15.41
2022-10-12T19:43:17.373Z,15.41
2022-10-12T19:45:46.969Z,15.43
2022-10-12T19:48:16.634Z,15.43
2022-10-12T19:50:46.402Z,15.43
2022-10-12T19:53:17.496Z,15.29
2022-10-12T19:55:48.569Z,15.31
2022-10-12T19:58:18.198Z,15.32
2022-10-12T20:00:51.270Z,15.20
2022-10-12T20:03:21.160Z,15.14
2022-10-12T20:05:50.746Z,15.08
2022-10-12T20:08:21.977Z,15.05
2022-10-12T20:10:51.685Z,15.09
2022-10-12T20:13:21.723Z,15.04
2022-10-12T20:15:52.910Z,14.96
2022-10-12T20:18:22.685Z,14.75
2022-10-12T20:20:52.338Z,14.78
2022-10-12T20:23:23.533Z,14.61
2022-10-12T20:25:54.223Z,14.59
2022-10-12T20:28:23.782Z,14.59
2022-10-12T20:30:53.707Z,14.55
2022-10-12T20:33:23.335Z,14.55
2022-10-12T20:35:52.980Z,14.52
2022-10-12T20:38:24.715Z,14.41
2022-10-12T20:41:02.244Z,14.43
2022-10-12T20:43:31.947Z,14.43
2022-10-12T20:46:02.959Z,14.32
2022-10-12T20:48:34.428Z,14.29
2022-10-12T20:51:06.209Z,14.14
2022-10-12T20:53:37.888Z,14.19
2022-10-12T20:56:08.765Z,14.13
2022-10-12T20:58:38.399Z,13.95
2022-10-12T21:01:09.674Z,13.93
2022-10-12T21:03:39.565Z,13.90
2022-10-12T21:06:10.720Z,13.79
2022-10-12T21:08:41.803Z,13.85
2022-10-12T21:11:11.912Z,13.68
2022-10-12T21:13:44.493Z,13.62
2022-10-12T21:16:15.471Z,13.58
2022-10-12T21:18:46.480Z,13.52
2022-10-12T21:21:17.237Z,13.39
2022-10-12T21:23:53.171Z,13.28
2022-10-12T21:26:23.605Z,13.29
2022-10-12T21:28:53.701Z,13.36
2022-10-12T21:31:29.477Z,13.26
2022-10-12T21:34:02.311Z,13.07
2022-10-12T21:36:32.457Z,12.95
2022-10-12T21:39:03.947Z,12.88
2022-10-12T21:41:34.128Z,12.77
2022-10-12T21:44:13.612Z,12.70
2022-10-12T21:46:43.369Z,12.65
2022-10-12T21:49:13.221Z,12.62
2022-10-12T21:51:42.999Z,12.49
2022-10-12T21:54:14.213Z,12.41
2022-10-12T21:56:43.817Z,12.42
2022-10-12T21:59:13.371Z,12.42
2022-10-12T22:01:43.018Z,12.30
2022-10-12T22:04:13.906Z,12.23
2022-10-12T22:06:44.365Z,12.32
2022-10-12T22:09:16.975Z,12.09
2022-10-12T22:11:47.918Z,12.11
2022-10-12T22:14:18.509Z,12.11
2022-10-12T22:16:48.486Z,12.13
2022-10-12T22:19:19.552Z,12.18
2022-10-12T22:21:49.797Z,11.81
2022-10-12T22:24:31.018Z,11.88
2022-10-12T22:27:01.425Z,11.87
2022-10-12T22:29:31.015Z,11.77
2022-10-12T22:32:03.903Z,11.82
2022-10-12T22:34:33.442Z,11.84
2022-10-12T22:37:03.349Z,11.66
2022-10-12T22:39:34.247Z,11.80
2022-10-12T22:42:03.741Z,11.66
2022-10-12T22:44:33.380Z,11.69
2022-10-12T22:47:03.004Z,11.60
2022-10-12T22:49:32.552Z,11.58
2022-10-12T22:52:02.240Z,11.56
2022-10-12T22:54:32.008Z,11.64
2022-10-12T22:57:02.926Z,11.65
2022-10-12T22:59:32.570Z,11.59
2022-10-12T23:02:02.190Z,11.53
2022-10-12T23:04:31.799Z,11.43
2022-10-12T23:07:01.454Z,11.44
2022-10-12T23:09:30.998Z,11.52
2022-10-12T23:12:01.116Z,11.37
2022-10-12T23:14:32.676Z,11.26
2022-10-12T23:17:02.667Z,11.27
2022-10-12T23:19:32.279Z,11.11
2022-10-12T23:22:01.954Z,11.14
2022-10-12T23:24:31.623Z,11.07
2022-10-12T23:27:01.197Z,10.94
2022-10-12T23:29:32.198Z,10.90
2022-10-12T23:32:01.821Z,11.06
2022-10-12T23:34:31.563Z,10.97
2022-10-12T23:37:01.189Z,10.95
2022-10-12T23:39:30.763Z,11.01
2022-10-12T23:42:00.922Z,10.84
2022-10-12T23:44:30.515Z,10.77
2022-10-12T23:47:01.538Z,10.86
2022-10-12T23:49:31.241Z,10.79
2022-10-12T23:52:00.839Z,10.79
2022-10-12T23:54:30.509Z,10.63
2022-10-12T23:57:00.267Z,10.60
2022-10-12T23:59:29.832Z,10.66
